X  Zatvori METAR Podaci o vazduhoplovstvu     LYNI Nis Airport
Temperatura
39°F Temperatura
36°F Tačka Rose
87% Vlaga



Vetar
10 MPH
16 KM/H
4 M/S
9 KTS



30°
SSI
Trenutna situacija

Slaba Kiša Slaba Kiša
Vazdušni pritisak 1018.92 (hPa) - 30.09 (inHg)
Vidljivost 6.2 (Milja) - 10 (km)
Aerodrom
Aerodromski kod. LYNI

Lokacija: Nis Airport
Udaljenost: 63 (mi)

Metar:
LYNI 010900Z 03009KT 360V060 9999 -RA FEW017 SCT040 04/02 Q1019 NOSIG

Vreme: 01-12-2022 10:00 CET